Time;durP1;ratioP1;P1;durP2;ratioP2;P2;SDS_P1;SDS_P2;PMS_P1;PMS_P2;Temp;Humidity;BMP_temperature;BMP_pressure;BME280_temperature;BME280_humidity;BME280_pressure;Samples;Min_cycle;Max_cycle;Signal;HPM_P1;HPM_P2
2021/06/07 00:00:44;;;;;;;5.78;3.67;;;16.80;99.60;;;;;;5115755;28;20759;-81
2021/06/07 00:03:10;;;;;;;4.38;3.22;;;16.80;99.90;;;;;;5098154;28;20186;-80
2021/06/07 00:05:35;;;;;;;7.90;3.75;;;16.70;99.90;;;;;;5115216;28;20181;-80
2021/06/07 00:08:01;;;;;;;9.10;3.60;;;16.70;99.90;;;;;;5115695;28;20227;-81
2021/06/07 00:10:27;;;;;;;10.23;3.72;;;16.60;99.90;;;;;;5115055;28;20178;-80
2021/06/07 00:12:53;;;;;;;6.45;3.75;;;16.60;99.90;;;;;;5115315;28;20258;-80
2021/06/07 00:15:23;;;;;;;6.22;3.58;;;16.60;99.90;;;;;;5115769;28;20639;-80
2021/06/07 00:17:48;;;;;;;8.32;4.45;;;16.50;99.90;;;;;;5115587;28;20205;-80
2021/06/07 00:20:41;;;;;;;4.50;3.53;;;16.50;99.90;;;;;;5116067;28;20575;-80
2021/06/07 00:23:10;;;;;;;5.47;3.45;;;16.40;99.90;;;;;;5115623;28;20194;-80
2021/06/07 00:25:37;;;;;;;4.70;3.90;;;16.40;99.90;;;;;;5116120;28;20225;-81
2021/06/07 00:28:03;;;;;;;8.38;3.95;;;16.40;99.90;;;;;;5115439;28;20182;-81
2021/06/07 00:30:29;;;;;;;5.93;3.88;;;16.40;99.90;;;;;;5115751;28;20177;-81
2021/06/07 00:32:55;;;;;;;5.57;4.07;;;16.30;99.90;;;;;;5115008;28;20178;-81
2021/06/07 00:35:25;;;;;;;4.85;4.00;;;16.30;99.90;;;;;;5116010;28;20193;-81
2021/06/07 00:37:51;;;;;;;5.00;3.75;;;16.30;99.90;;;;;;5115030;28;20240;-81
2021/06/07 00:40:18;;;;;;;8.60;4.03;;;16.20;99.90;;;;;;5114222;28;20218;-80
2021/06/07 00:42:45;;;;;;;4.28;3.60;;;16.20;99.90;;;;;;5114728;28;20193;-81
2021/06/07 00:45:17;;;;;;;5.50;3.60;;;16.10;99.90;;;;;;5114237;28;20265;-81
2021/06/07 00:47:43;;;;;;;4.95;3.55;;;16.10;99.90;;;;;;5115123;28;20161;-81
2021/06/07 00:50:12;;;;;;;10.50;3.95;;;16.10;99.90;;;;;;5114954;28;20536;-81
2021/06/07 00:53:00;;;;;;;6.97;4.03;;;16.10;99.90;;;;;;5115246;28;20192;-80
2021/06/07 00:55:26;;;;;;;9.23;4.00;;;16.00;99.90;;;;;;5115394;28;20211;-81
2021/06/07 00:57:53;;;;;;;6.22;3.85;;;16.00;99.90;;;;;;5114505;28;20212;-81
2021/06/07 01:00:21;;;;;;;10.13;3.72;;;15.90;99.90;;;;;;5114915;28;20226;-81
2021/06/07 01:02:47;;;;;;;5.15;3.97;;;15.90;99.90;;;;;;5114772;28;20261;-81
2021/06/07 01:05:13;;;;;;;6.93;3.63;;;15.80;99.90;;;;;;5131199;27;20314;-81
2021/06/07 01:07:39;;;;;;;6.25;4.40;;;15.70;99.90;;;;;;5113603;28;20190;-81
2021/06/07 01:10:07;;;;;;;7.25;3.70;;;15.60;99.90;;;;;;5113246;28;20260;-81
2021/06/07 01:12:33;;;;;;;5.85;3.92;;;15.50;99.90;;;;;;5114688;28;20253;-81
2021/06/07 01:14:59;;;;;;;6.60;4.22;;;15.40;99.90;;;;;;5113341;28;20569;-81
2021/06/07 01:17:26;;;;;;;6.22;4.43;;;15.30;99.90;;;;;;5114767;28;20685;-81
2021/06/07 01:19:53;;;;;;;5.25;4.22;;;15.30;99.90;;;;;;5130240;27;20186;-81
2021/06/07 01:22:19;;;;;;;6.25;3.90;;;15.20;99.90;;;;;;5113336;28;20232;-81
2021/06/07 01:24:44;;;;;;;6.88;4.50;;;15.20;99.90;;;;;;5114754;28;20178;-81
2021/06/07 01:27:11;;;;;;;6.57;4.25;;;15.10;99.90;;;;;;5113298;28;20220;-81
2021/06/07 01:29:36;;;;;;;6.15;4.35;;;15.10;99.90;;;;;;5114294;28;20181;-81
2021/06/07 01:32:02;;;;;;;5.22;4.10;;;15.00;99.90;;;;;;5114313;28;20178;-81
2021/06/07 01:34:28;;;;;;;7.10;4.40;;;15.00;99.90;;;;;;5113423;28;20185;-80
2021/06/07 01:36:54;;;;;;;11.20;5.00;;;14.90;99.90;;;;;;5113878;28;20177;-81
2021/06/07 01:39:23;;;;;;;12.07;4.70;;;14.90;99.90;;;;;;5113202;28;20186;-81
2021/06/07 01:41:49;;;;;;;5.90;4.22;;;14.80;99.90;;;;;;5114171;28;20241;-80
2021/06/07 01:44:14;;;;;;;7.35;4.15;;;14.80;99.90;;;;;;5112531;28;20709;-80
2021/06/07 01:46:40;;;;;;;6.20;4.28;;;14.70;99.90;;;;;;5113758;28;20534;-80
2021/06/07 01:49:07;;;;;;;9.15;4.30;;;14.70;99.90;;;;;;5112603;28;20201;-81
2021/06/07 01:51:32;;;;;;;7.25;5.07;;;14.70;99.90;;;;;;5114363;28;20182;-80
2021/06/07 01:53:58;;;;;;;6.22;4.53;;;14.60;99.90;;;;;;5113984;28;20227;-81
2021/06/07 01:56:24;;;;;;;6.80;4.80;;;14.60;99.90;;;;;;5130382;27;20177;-81
2021/06/07 01:58:49;;;;;;;8.32;5.15;;;14.60;99.90;;;;;;5113701;28;20201;-81
2021/06/07 02:01:18;;;;;;;9.05;4.35;;;14.60;99.90;;;;;;5113942;28;20189;-81
2021/06/07 02:03:45;;;;;;;7.32;4.75;;;14.60;99.90;;;;;;5112618;28;20220;-82
2021/06/07 02:06:13;;;;;;;5.72;4.28;;;14.50;99.90;;;;;;5113376;28;20539;-81
2021/06/07 02:08:39;;;;;;;8.95;6.22;;;14.50;99.90;;;;;;5113968;28;20169;-80
2021/06/07 02:11:13;;;;;;;9.95;4.20;;;14.50;99.90;;;;;;5112221;28;20646;-81
2021/06/07 02:13:40;;;;;;;8.48;4.70;;;14.40;99.90;;;;;;5112811;28;20195;-80
2021/06/07 02:16:14;;;;;;;10.07;4.63;;;14.40;99.90;;;;;;5113483;28;20174;-81
2021/06/07 02:18:40;;;;;;;8.75;4.35;;;14.30;99.90;;;;;;5113889;28;20224;-80
2021/06/07 02:21:07;;;;;;;7.72;4.72;;;14.30;99.90;;;;;;5112215;28;20281;-81
2021/06/07 02:23:33;;;;;;;9.35;5.18;;;14.30;99.90;;;;;;5113589;28;20268;-81
2021/06/07 02:25:59;;;;;;;8.00;4.43;;;14.30;99.90;;;;;;5113324;28;20178;-81
2021/06/07 02:28:26;;;;;;;9.93;4.90;;;14.20;99.90;;;;;;5114028;28;20189;-81
2021/06/07 02:30:52;;;;;;;13.50;5.45;;;14.20;99.90;;;;;;5112298;28;20664;-81
2021/06/07 02:33:18;;;;;;;8.32;5.38;;;14.20;99.90;;;;;;5113059;28;20178;-81
2021/06/07 02:35:45;;;;;;;10.35;5.15;;;14.20;99.90;;;;;;5112323;28;20260;-81
2021/06/07 02:38:12;;;;;;;9.52;4.70;;;14.10;99.90;;;;;;5113243;28;20215;-80
2021/06/07 02:40:39;;;;;;;9.38;5.00;;;14.10;99.90;;;;;;5113760;28;20189;-80
2021/06/07 02:43:05;;;;;;;8.40;5.28;;;14.10;99.90;;;;;;5111694;28;20174;-81
2021/06/07 02:45:31;;;;;;;13.63;6.70;;;14.00;99.90;;;;;;5113439;28;20216;-81
2021/06/07 02:47:59;;;;;;;10.20;6.72;;;14.00;99.90;;;;;;5094961;28;20646;-82
2021/06/07 02:50:28;;;;;;;7.68;5.63;;;14.00;99.90;;;;;;5112227;28;20174;-80
2021/06/07 02:52:55;;;;;;;7.55;4.97;;;14.00;99.90;;;;;;5113168;28;20178;-80
2021/06/07 02:55:27;;;;;;;11.15;6.22;;;14.00;99.90;;;;;;5112993;28;20178;-81
2021/06/07 02:57:54;;;;;;;10.20;6.28;;;14.00;99.90;;;;;;5116968;28;20194;-80
2021/06/07 03:00:28;;;;;;;10.20;5.47;;;13.90;99.90;;;;;;5115873;28;20185;-80
2021/06/07 03:02:55;;;;;;;12.20;5.70;;;14.00;99.90;;;;;;5116525;28;20231;-80
2021/06/07 03:05:21;;;;;;;9.77;6.43;;;14.00;99.90;;;;;;5116951;28;20182;-80
2021/06/07 03:07:46;;;;;;;13.60;5.63;;;14.00;99.90;;;;;;5115941;28;20178;-80
2021/06/07 03:10:13;;;;;;;7.90;5.70;;;14.00;99.90;;;;;;5098801;28;20182;-81
2021/06/07 03:12:40;;;;;;;14.00;5.22;;;14.10;99.90;;;;;;5115695;28;20229;-81
2021/06/07 03:15:07;;;;;;;14.43;5.43;;;14.00;99.90;;;;;;5115687;28;20185;-81
2021/06/07 03:17:33;;;;;;;8.80;5.90;;;14.10;99.90;;;;;;5117220;28;20204;-81
2021/06/07 03:19:59;;;;;;;13.00;6.00;;;14.10;99.90;;;;;;5116832;28;20174;-82
2021/06/07 03:22:25;;;;;;;11.90;6.03;;;14.10;99.90;;;;;;5117077;28;20257;-81
2021/06/07 03:24:51;;;;;;;10.07;6.85;;;14.20;99.90;;;;;;5117161;28;20174;-81
2021/06/07 03:27:18;;;;;;;10.65;6.43;;;14.30;99.90;;;;;;5115400;28;20190;-82
2021/06/07 03:29:44;;;;;;;16.50;6.65;;;14.30;99.90;;;;;;5116821;28;20181;-82
2021/06/07 03:32:10;;;;;;;10.40;6.03;;;14.40;99.90;;;;;;5116249;28;20189;-82
2021/06/07 03:34:36;;;;;;;10.20;5.72;;;14.50;99.90;;;;;;5094738;28;20174;-81
2021/06/07 03:37:02;;;;;;;12.60;6.15;;;14.50;99.90;;;;;;5095924;28;20231;-82
2021/06/07 03:39:28;;;;;;;34.60;5.90;;;14.60;99.90;;;;;;5096466;28;20187;-81
2021/06/07 03:41:54;;;;;;;9.98;5.32;;;14.70;99.90;;;;;;5111549;28;20182;-82
2021/06/07 03:44:19;;;;;;;10.80;5.82;;;14.80;99.90;;;;;;5094898;28;20615;-81
2021/06/07 03:46:45;;;;;;;6.47;4.90;;;15.00;99.90;;;;;;5113285;28;20166;-82
2021/06/07 03:49:11;;;;;;;12.40;5.75;;;15.10;99.90;;;;;;5094335;28;20191;-83
2021/06/07 03:51:36;;;;;;;11.68;5.47;;;15.10;99.90;;;;;;5112897;28;20178;-82
2021/06/07 03:54:02;;;;;;;10.10;5.00;;;15.20;99.90;;;;;;5111561;28;20182;-82
2021/06/07 03:56:28;;;;;;;9.65;5.22;;;15.20;99.90;;;;;;5111360;28;20196;-82
2021/06/07 03:58:53;;;;;;;10.32;5.32;;;15.30;99.90;;;;;;5106233;28;20209;-82
2021/06/07 04:01:19;;;;;;;10.02;5.85;;;15.30;99.90;;;;;;5099373;28;20194;-82
2021/06/07 04:03:45;;;;;;;9.50;5.20;;;15.40;99.90;;;;;;5112019;28;20219;-81
2021/06/07 04:06:12;;;;;;;10.02;5.75;;;15.40;99.90;;;;;;5113032;28;20185;-82
2021/06/07 04:08:38;;;;;;;13.98;8.18;;;15.50;99.90;;;;;;5106773;28;20197;-82
2021/06/07 04:11:03;;;;;;;13.75;5.47;;;15.50;99.90;;;;;;5092168;28;20187;-81
2021/06/07 04:13:29;;;;;;;13.60;5.85;;;14.40;99.90;;;;;;5094084;28;20187;-82
2021/06/07 04:15:55;;;;;;;10.60;6.05;;;15.50;99.90;;;;;;5106749;28;20548;-81
2021/06/07 04:18:20;;;;;;;13.57;6.28;;;15.60;99.90;;;;;;5112662;28;20644;-82
2021/06/07 04:20:46;;;;;;;15.45;6.22;;;15.60;99.90;;;;;;5113785;28;20239;-81
2021/06/07 04:23:11;;;;;;;10.75;6.07;;;15.60;99.90;;;;;;5104895;28;20281;-82
2021/06/07 04:25:37;;;;;;;10.75;5.50;;;15.70;99.90;;;;;;5113428;28;20174;-82
2021/06/07 04:28:04;;;;;;;11.98;6.60;;;15.70;99.90;;;;;;5114300;28;20189;-84
2021/06/07 04:30:31;;;;;;;13.38;6.05;;;15.80;99.90;;;;;;5113470;28;20222;-82
2021/06/07 04:33:00;;;;;;;10.25;5.43;;;15.80;99.90;;;;;;5104325;28;20189;-83
2021/06/07 04:35:26;;;;;;;9.82;6.15;;;15.80;99.90;;;;;;5113804;28;20197;-82
2021/06/07 04:37:53;;;;;;;11.20;5.88;;;15.80;99.90;;;;;;5112909;28;20209;-82
2021/06/07 04:40:22;;;;;;;8.18;5.85;;;15.80;99.90;;;;;;5113154;28;20182;-83
2021/06/07 04:42:50;;;;;;;9.75;5.88;;;15.90;99.90;;;;;;5113964;28;20189;-83
2021/06/07 04:45:17;;;;;;;12.25;5.38;;;16.00;99.90;;;;;;5112988;28;20186;-83
2021/06/07 04:47:42;;;;;;;14.23;5.75;;;16.10;99.90;;;;;;5110732;28;20182;-83
2021/06/07 04:50:11;;;;;;;9.57;5.80;;;16.10;99.90;;;;;;5111030;28;20238;-83
2021/06/07 04:52:56;;;;;;;9.07;5.03;;;16.20;99.90;;;;;;5113222;28;20182;-83
2021/06/07 04:55:27;;;;;;;16.42;5.75;;;16.20;99.90;;;;;;5113126;28;20187;-83
2021/06/07 04:57:53;;;;;;;11.95;5.32;;;16.20;99.90;;;;;;5111611;28;20573;-83
2021/06/07 05:00:21;;;;;;;12.90;5.68;;;16.20;99.90;;;;;;5111278;28;20197;-82
2021/06/07 05:02:48;;;;;;;6.47;5.53;;;16.30;99.90;;;;;;5111733;28;20508;-82
2021/06/07 05:05:14;;;;;;;10.52;5.53;;;16.30;99.90;;;;;;5112652;28;20174;-82
2021/06/07 05:07:40;;;;;;;15.32;5.40;;;16.30;99.90;;;;;;5113173;28;20740;-82
2021/06/07 05:10:06;;;;;;;15.25;6.13;;;16.30;99.90;;;;;;5114308;28;20282;-81
2021/06/07 05:12:32;;;;;;;14.55;5.28;;;16.40;99.90;;;;;;5114035;28;20233;-81
2021/06/07 05:14:59;;;;;;;11.30;6.25;;;16.60;99.90;;;;;;5113163;28;20227;-81
2021/06/07 05:17:26;;;;;;;13.45;6.72;;;16.70;99.90;;;;;;5114576;28;20205;-80
2021/06/07 05:19:52;;;;;;;16.23;6.28;;;16.90;99.90;;;;;;5113728;28;20270;-81
2021/06/07 05:22:17;;;;;;;17.33;6.38;;;17.00;99.90;;;;;;5113301;28;20182;-80
2021/06/07 05:24:43;;;;;;;11.95;6.32;;;17.20;99.90;;;;;;5114524;28;20176;-80
2021/06/07 05:27:09;;;;;;;20.90;6.28;;;17.30;99.90;;;;;;5114939;28;20189;-81
2021/06/07 05:29:35;;;;;;;12.18;6.05;;;17.50;99.90;;;;;;5113038;28;20174;-81
2021/06/07 05:32:00;;;;;;;12.45;5.90;;;17.60;99.90;;;;;;5113287;28;20615;-80
2021/06/07 05:34:26;;;;;;;10.80;5.43;;;;;;;;;;5112743;28;20268;-81
2021/06/07 05:36:52;;;;;;;9.05;5.10;;;17.90;99.90;;;;;;5114067;28;20653;-82
2021/06/07 05:39:19;;;;;;;8.93;5.43;;;18.10;99.90;;;;;;5113685;28;20226;-82
2021/06/07 05:41:48;;;;;;;16.63;6.10;;;18.30;99.90;;;;;;5113117;28;20186;-80
2021/06/07 05:44:14;;;;;;;11.75;5.63;;;18.40;99.90;;;;;;5114276;28;20178;-80
2021/06/07 05:46:40;;;;;;;19.40;5.85;;;18.60;99.90;;;;;;5114036;28;20226;-80
2021/06/07 05:49:07;;;;;;;16.77;5.43;;;18.70;99.90;;;;;;5113481;28;20256;-80
2021/06/07 05:51:33;;;;;;;12.25;6.18;;;18.80;99.90;;;;;;5094830;28;20255;-80
2021/06/07 05:53:58;;;;;;;13.40;5.72;;;19.00;99.90;;;;;;5113178;28;20246;-81
2021/06/07 05:56:24;;;;;;;13.48;5.60;;;19.10;99.90;;;;;;5112858;28;20634;-81
2021/06/07 05:58:56;;;;;;;16.17;5.05;;;19.10;99.90;;;;;;5112290;28;20250;-81
2021/06/07 06:01:22;;;;;;;14.90;5.00;;;19.20;99.90;;;;;;5112144;28;20223;-81
2021/06/07 06:03:48;;;;;;;14.95;5.00;;;19.30;99.90;;;;;;5111973;28;20576;-81
2021/06/07 06:06:14;;;;;;;10.70;4.40;;;19.40;99.90;;;;;;5111504;28;20177;-83
2021/06/07 06:08:39;;;;;;;14.27;5.25;;;19.50;99.90;;;;;;5111675;28;20734;-82
2021/06/07 06:11:05;;;;;;;6.65;4.53;;;19.60;99.90;;;;;;5094805;28;20205;-81
2021/06/07 06:13:31;;;;;;;10.32;4.90;;;19.80;99.90;;;;;;5111838;28;20193;-82
2021/06/07 06:15:57;;;;;;;6.20;4.68;;;19.90;99.90;;;;;;5112098;28;20557;-81
2021/06/07 06:18:22;;;;;;;9.63;4.55;;;20.00;99.90;;;;;;5111609;28;20217;-81
2021/06/07 06:20:48;;;;;;;7.35;4.30;;;20.00;99.90;;;;;;5112756;28;20178;-81
2021/06/07 06:23:14;;;;;;;9.13;4.63;;;20.10;99.90;;;;;;5112863;28;20182;-79
2021/06/07 06:25:40;;;;;;;9.57;4.28;;;20.10;99.90;;;;;;5112691;28;20205;-83
2021/06/07 06:28:05;;;;;;;13.20;3.65;;;20.10;99.90;;;;;;5112620;28;20209;-80
2021/06/07 06:30:31;;;;;;;10.15;5.10;;;20.20;99.90;;;;;;5112571;28;20178;-81
2021/06/07 06:32:59;;;;;;;5.88;4.10;;;20.20;99.90;;;;;;5112606;28;20770;-81
2021/06/07 06:35:25;;;;;;;11.45;5.30;;;20.30;99.90;;;;;;5112833;28;20170;-82
2021/06/07 06:37:51;;;;;;;12.38;4.75;;;20.50;99.90;;;;;;5111823;28;20201;-81
2021/06/07 06:40:30;;;;;;;8.57;4.60;;;20.60;99.90;;;;;;5094905;28;20184;-81
2021/06/07 06:42:57;;;;;;;11.80;4.63;;;20.70;99.90;;;;;;5111738;28;20181;-81
2021/06/07 06:45:23;;;;;;;9.45;4.38;;;20.80;99.90;;;;;;5112391;28;20166;-81
2021/06/07 06:47:55;;;;;;;12.43;4.63;;;20.90;99.90;;;;;;5112955;28;20229;-81
2021/06/07 06:50:22;;;;;;;9.63;4.22;;;20.90;99.90;;;;;;5111283;28;20182;-81
2021/06/07 06:52:47;;;;;;;7.88;4.38;;;21.00;99.90;;;;;;5112547;28;20205;-81
2021/06/07 06:55:14;;;;;;;7.43;4.05;;;21.10;99.90;;;;;;5111152;28;20652;-81
2021/06/07 06:57:40;;;;;;;11.20;4.70;;;21.10;99.90;;;;;;5107866;28;20268;-81
2021/06/07 07:00:07;;;;;;;9.82;3.92;;;21.00;99.90;;;;;;5112216;28;20205;-81
2021/06/07 07:02:33;;;;;;;9.70;4.60;;;21.00;99.90;;;;;;5112082;28;20178;-81
2021/06/07 07:04:59;;;;;;;8.65;4.38;;;20.90;99.90;;;;;;5112261;28;20256;-80
2021/06/07 07:07:24;;;;;;;6.55;3.80;;;21.10;99.90;;;;;;5109796;28;20192;-81
2021/06/07 07:09:50;;;;;;;8.48;3.67;;;21.30;99.90;;;;;;5113066;28;20206;-81
2021/06/07 07:12:16;;;;;;;7.57;3.22;;;21.40;99.90;;;;;;5112647;28;20644;-81
2021/06/07 07:14:42;;;;;;;9.07;3.50;;;21.50;99.90;;;;;;5114233;28;20174;-80
2021/06/07 07:17:08;;;;;;;6.60;3.25;;;21.70;99.90;;;;;;5111629;28;20208;-81
2021/06/07 07:19:33;;;;;;;47.67;7.97;;;21.90;99.90;;;;;;5112346;28;20201;-81
2021/06/07 07:22:01;;;;;;;8.45;3.90;;;22.10;99.90;;;;;;5112699;28;20186;-81
2021/06/07 07:24:28;;;;;;;12.95;4.30;;;22.10;99.60;;;;;;5111620;28;20203;-81
2021/06/07 07:26:53;;;;;;;26.63;4.78;;;22.10;98.70;;;;;;5112891;28;20528;-81
2021/06/07 07:29:19;;;;;;;9.55;3.67;;;22.30;98.70;;;;;;5112686;28;20170;-80
2021/06/07 07:31:45;;;;;;;3.35;2.97;;;22.40;97.00;;;;;;5110817;28;20635;-81
2021/06/07 07:34:10;;;;;;;6.72;3.78;;;22.50;97.40;;;;;;5110156;28;20626;-81
2021/06/07 07:36:36;;;;;;;4.75;3.65;;;22.60;95.80;;;;;;5111132;28;20243;-80
2021/06/07 07:39:03;;;;;;;5.50;3.30;;;22.50;95.50;;;;;;5112293;28;20558;-80
2021/06/07 07:41:29;;;;;;;6.95;2.85;;;22.60;95.00;;;;;;5111043;28;20178;-80
2021/06/07 07:43:54;;;;;;;10.75;3.60;;;22.50;92.60;;;;;;5114048;28;20661;-81
2021/06/07 07:46:20;;;;;;;5.47;2.83;;;22.60;93.00;;;;;;5115980;28;20190;-80
2021/06/07 07:48:46;;;;;;;9.77;3.08;;;22.70;92.20;;;;;;5115881;28;20185;-81
2021/06/07 07:51:11;;;;;;;11.68;3.20;;;22.70;90.70;;;;;;5114430;28;20170;-81
2021/06/07 07:53:37;;;;;;;5.45;3.28;;;22.70;91.60;;;;;;5096200;28;20181;-82
2021/06/07 07:56:03;;;;;;;6.72;3.45;;;22.70;91.90;;;;;;5113006;28;20173;-82
2021/06/07 07:58:29;;;;;;;6.47;3.00;;;22.70;91.60;;;;;;5112563;28;20569;-82
2021/06/07 08:00:54;;;;;;;7.55;3.17;;;22.60;91.10;;;;;;5114414;28;20170;-81
2021/06/07 08:03:20;;;;;;;4.13;2.97;;;22.50;91.80;;;;;;5114295;28;20570;-81
2021/06/07 08:05:46;;;;;;;7.63;2.60;;;22.40;90.90;;;;;;5112681;28;20668;-81
2021/06/07 08:08:12;;;;;;;3.72;2.45;;;22.30;90.70;;;;;;5096616;28;20189;-81
2021/06/07 08:10:38;;;;;;;7.20;2.30;;;22.40;90.50;;;;;;5115480;28;20170;-81
2021/06/07 08:13:04;;;;;;;4.97;2.67;;;22.60;90.30;;;;;;5116089;28;20229;-80
2021/06/07 08:15:30;;;;;;;5.30;2.85;;;22.70;89.60;;;;;;5114445;28;20525;-81
2021/06/07 08:17:55;;;;;;;7.57;2.35;;;22.90;90.20;;;;;;5115786;28;20208;-81
2021/06/07 08:20:21;;;;;;;6.05;2.90;;;23.10;87.40;;;;;;5114774;28;20178;-81
2021/06/07 08:22:50;;;;;;;5.28;2.70;;;23.10;86.50;;;;;;5115552;28;20178;-80
2021/06/07 08:25:19;;;;;;;3.65;2.70;;;23.20;85.50;;;;;;5115908;28;20174;-81
2021/06/07 08:27:45;;;;;;;6.13;2.38;;;23.20;85.50;;;;;;5114103;28;20193;-81
2021/06/07 08:30:12;;;;;;;9.18;2.63;;;23.20;83.60;;;;;;5115242;28;20243;-81
2021/06/07 08:32:39;;;;;;;3.38;2.33;;;23.10;82.90;;;;;;5115224;28;20269;-81
2021/06/07 08:35:06;;;;;;;3.65;2.42;;;23.00;83.60;;;;;;5115693;28;20642;-81
2021/06/07 08:37:32;;;;;;;5.65;2.80;;;23.00;84.20;;;;;;5115251;28;20197;-82
2021/06/07 08:39:58;;;;;;;6.80;2.42;;;23.10;83.40;;;;;;5115369;28;20178;-80
2021/06/07 08:42:24;;;;;;;3.70;2.20;;;23.10;80.50;;;;;;5115595;28;20215;-81
2021/06/07 08:44:50;;;;;;;3.97;2.03;;;23.10;80.40;;;;;;5116898;28;20231;-80
2021/06/07 08:47:15;;;;;;;4.80;2.90;;;23.20;81.30;;;;;;5101128;28;20269;-80
2021/06/07 08:49:41;;;;;;;6.32;2.75;;;23.30;81.40;;;;;;5115516;28;20255;-80
2021/06/07 08:52:07;;;;;;;9.18;2.58;;;23.30;80.20;;;;;;5115450;28;20186;-81
2021/06/07 08:54:34;;;;;;;4.40;2.58;;;23.40;79.20;;;;;;5113708;28;20184;-82
2021/06/07 08:57:00;;;;;;;7.72;2.78;;;23.40;80.30;;;;;;5115217;28;20178;-81
2021/06/07 08:59:25;;;;;;;4.53;2.58;;;23.60;80.50;;;;;;5113599;28;20221;-81
2021/06/07 09:01:54;;;;;;;9.45;3.05;;;23.70;81.00;;;;;;5114840;28;20193;-81
2021/06/07 09:04:26;;;;;;;6.80;3.25;;;23.70;81.70;;;;;;5115024;28;20626;-81
2021/06/07 09:06:53;;;;;;;3.50;2.55;;;23.70;80.40;;;;;;5114717;28;20610;-82
2021/06/07 09:09:24;;;;;;;3.78;2.88;;;23.80;80.00;;;;;;5115016;28;20185;-80
2021/06/07 09:11:57;;;;;;;14.07;3.00;;;23.90;80.70;;;;;;5114491;28;20233;-81
2021/06/07 09:14:47;;;;;;;3.08;2.58;;;24.00;81.40;;;;;;5115082;28;20177;-81
2021/06/07 09:17:21;;;;;;;7.20;3.08;;;24.20;80.80;;;;;;5114572;28;20189;-81
2021/06/07 09:19:49;;;;;;;11.77;3.25;;;24.40;80.00;;;;;;5114400;28;20178;-80
2021/06/07 09:22:30;;;;;;;5.65;2.53;;;24.50;80.80;;;;;;5113568;28;20269;-80
2021/06/07 09:25:14;;;;;;;5.90;2.78;;;24.50;79.30;;;;;;5113197;28;20162;-81
2021/06/07 09:27:58;;;;;;;6.35;2.70;;;24.20;79.70;;;;;;5114288;28;20178;-82
2021/06/07 09:30:33;;;;;;;6.18;3.15;;;23.90;78.70;;;;;;5113236;28;20174;-81
2021/06/07 09:33:35;;;;;;;7.82;2.88;;;23.70;78.40;;;;;;5112889;28;20177;-80
2021/06/07 09:36:27;;;;;;;3.67;2.70;;;23.70;79.00;;;;;;5112753;28;20196;-81
2021/06/07 09:39:24;;;;;;;9.77;2.35;;;24.00;78.30;;;;;;5114027;28;20207;-81
2021/06/07 09:41:53;;;;;;;6.85;2.78;;;24.20;76.50;;;;;;5113930;28;20691;-79
2021/06/07 09:44:44;;;;;;;8.38;2.92;;;24.00;72.60;;;;;;5114321;28;20201;-79
2021/06/07 09:47:23;;;;;;;10.73;7.85;;;24.00;73.40;;;;;;5114205;28;20166;-79
2021/06/07 09:49:58;;;;;;;3.95;2.83;;;24.10;74.40;;;;;;5112367;28;20185;-79
2021/06/07 09:52:43;;;;;;;8.05;3.72;;;24.40;72.80;;;;;;5113858;28;20158;-80
2021/06/07 09:55:09;;;;;;;4.88;2.30;;;24.40;69.30;;;;;;5111491;28;20269;-79
2021/06/07 09:57:57;;;;;;;4.32;2.17;;;24.10;66.20;;;;;;5113328;28;20204;-81
2021/06/07 10:00:34;;;;;;;3.53;2.00;;;23.90;62.70;;;;;;5113305;28;20767;-79
2021/06/07 10:03:23;;;;;;;7.03;3.08;;;23.90;60.10;;;;;;5112586;28;20512;-80
2021/06/07 10:05:55;;;;;;;3.38;1.60;;;24.20;58.70;;;;;;5110957;28;20173;-80
2021/06/07 10:08:25;;;;;;;3.78;1.63;;;24.40;56.40;;;;;;5111643;28;20538;-79
2021/06/07 10:10:52;;;;;;;3.25;2.25;;;24.60;55.60;;;;;;5112748;28;20171;-80
2021/06/07 10:13:18;;;;;;;4.50;1.98;;;24.70;57.10;;;;;;5112015;28;20193;-80
2021/06/07 10:15:46;;;;;;;2.05;1.73;;;24.80;58.00;;;;;;5112770;28;20238;-79
2021/06/07 10:18:19;;;;;;;4.90;2.22;;;24.80;57.10;;;;;;5111079;28;20216;-79
2021/06/07 10:20:47;;;;;;;2.35;1.90;;;25.00;57.90;;;;;;5112271;28;20691;-80
2021/06/07 10:23:28;;;;;;;6.40;2.22;;;24.90;58.30;;;;;;5112953;28;20269;-80
2021/06/07 10:25:59;;;;;;;4.90;2.20;;;24.90;58.50;;;;;;5112337;28;20166;-80
2021/06/07 10:28:24;;;;;;;2.70;2.00;;;25.00;59.60;;;;;;5111283;28;20254;-80
2021/06/07 10:30:50;;;;;;;4.55;2.33;;;25.20;58.40;;;;;;5112164;28;20655;-79
2021/06/07 10:33:27;;;;;;;5.10;2.17;;;25.40;57.80;;;;;;5111100;28;20205;-82
2021/06/07 10:35:54;;;;;;;4.78;2.55;;;25.40;56.20;;;;;;5112135;28;20158;-80
2021/06/07 10:38:32;;;;;;;15.18;2.10;;;25.50;55.00;;;;;;5112310;28;20231;-80
2021/06/07 10:41:21;;;;;;;6.50;1.90;;;25.40;55.30;;;;;;5112192;28;20177;-79
2021/06/07 10:43:53;;;;;;;5.38;2.78;;;25.40;54.50;;;;;;5112856;28;20166;-80
2021/06/07 10:46:23;;;;;;;6.20;2.20;;;25.60;55.00;;;;;;5112514;28;20181;-80
2021/06/07 10:48:53;;;;;;;4.65;1.83;;;25.50;55.50;;;;;;5112690;28;20177;-80
2021/06/07 10:51:25;;;;;;;3.72;2.63;;;25.60;55.50;;;;;;5113018;28;20638;-80
2021/06/07 10:53:53;;;;;;;7.88;2.30;;;25.50;55.70;;;;;;5111607;28;20224;-79
2021/06/07 10:56:26;;;;;;;16.20;2.53;;;25.70;57.70;;;;;;5111237;28;20231;-79
2021/06/07 10:58:57;;;;;;;11.80;2.33;;;25.80;57.40;;;;;;5112648;28;20221;-79
2021/06/07 11:01:23;;;;;;;5.18;2.10;;;25.80;56.70;;;;;;5110114;28;20211;-80
2021/06/07 11:03:57;;;;;;;6.72;2.25;;;25.70;57.40;;;;;;5112492;28;20170;-79
2021/06/07 11:06:23;;;;;;;5.75;2.50;;;25.90;56.90;;;;;;5110474;28;20165;-80
2021/06/07 11:09:05;;;;;;;3.55;2.42;;;26.20;57.70;;;;;;5111120;28;20580;-80
2021/06/07 11:11:43;;;;;;;5.13;2.60;;;26.40;56.30;;;;;;5111416;28;20218;-80
2021/06/07 11:14:10;;;;;;;6.82;2.33;;;26.40;57.50;;;;;;5109697;28;20166;-80
2021/06/07 11:16:43;;;;;;;6.75;2.30;;;26.10;57.30;;;;;;5119639;28;20201;-81
2021/06/07 11:19:14;;;;;;;6.72;2.55;;;25.50;56.90;;;;;;5116110;28;20193;-80
2021/06/07 11:21:48;;;;;;;6.60;2.55;;;25.30;57.50;;;;;;5116339;28;20170;-80
2021/06/07 11:24:36;;;;;;;2.30;2.10;;;25.30;56.20;;;;;;5116154;28;20523;-80
2021/06/07 11:27:05;;;;;;;2.95;2.35;;;25.30;56.10;;;;;;5112417;28;20691;-81
2021/06/07 11:29:31;;;;;;;4.65;2.60;;;25.30;57.80;;;;;;5116359;28;20185;-80
2021/06/07 11:32:17;;;;;;;18.65;2.97;;;25.30;58.30;;;;;;5114651;28;20166;-80
2021/06/07 11:34:48;;;;;;;8.88;2.88;;;25.20;58.10;;;;;;5112387;28;20182;-81
2021/06/07 11:37:33;;;;;;;6.82;2.10;;;24.90;57.50;;;;;;5115212;28;20178;-81
2021/06/07 11:40:00;;;;;;;5.70;2.40;;;24.70;56.60;;;;;;5115751;28;20178;-81
2021/06/07 11:42:29;;;;;;;2.75;2.10;;;24.50;57.10;;;;;;5116253;28;20166;-81
2021/06/07 11:44:58;;;;;;;9.57;2.42;;;24.50;57.70;;;;;;5114590;28;20535;-81
2021/06/07 11:47:25;;;;;;;3.20;2.20;;;24.80;55.80;;;;;;5116025;28;20162;-81
2021/06/07 11:49:59;;;;;;;6.05;2.40;;;25.00;54.40;;;;;;5115692;28;20181;-82
2021/06/07 11:52:47;;;;;;;5.55;4.40;;;25.10;56.20;;;;;;5113996;28;20530;-81
2021/06/07 11:55:35;;;;;;;5.93;2.10;;;25.30;55.90;;;;;;5113705;28;20600;-81
2021/06/07 11:58:19;;;;;;;5.70;2.30;;;25.30;55.90;;;;;;5110562;28;20437;-81
2021/06/07 12:01:03;;;;;;;9.35;2.60;;;25.20;56.50;;;;;;5114261;28;20619;-80
2021/06/07 12:03:30;;;;;;;5.80;2.53;;;25.20;57.70;;;;;;5095679;28;20499;-80
2021/06/07 12:05:57;;;;;;;5.30;2.22;;;25.30;55.70;;;;;;5094230;28;20273;-81
2021/06/07 12:08:25;;;;;;;6.57;2.75;;;25.50;53.50;;;;;;5095877;28;20178;-80
2021/06/07 12:10:56;;;;;;;4.55;2.10;;;25.50;55.30;;;;;;5095718;28;20220;-80
2021/06/07 12:13:22;;;;;;;6.88;2.35;;;25.40;57.60;;;;;;5095689;28;20600;-80
2021/06/07 12:15:54;;;;;;;5.18;3.08;;;25.50;56.60;;;;;;5095801;28;20666;-80
2021/06/07 12:18:32;;;;;;;6.88;2.20;;;25.70;57.00;;;;;;5095735;28;20723;-80
2021/06/07 12:20:59;;;;;;;4.00;2.40;;;25.90;56.80;;;;;;5094129;28;20179;-80
2021/06/07 12:23:31;;;;;;;4.82;3.03;;;26.10;57.30;;;;;;5077319;28;20239;-80
2021/06/07 12:28:38;;;;;;;8.40;2.53;;;25.80;55.20;;;;;;5095044;28;20611;-80
2021/06/07 12:31:04;;;;;;;6.50;3.03;;;25.80;55.70;;;;;;5093437;28;20258;-80
2021/06/07 12:33:32;;;;;;;4.57;3.05;;;25.90;55.30;;;;;;5095631;28;20183;-81
2021/06/07 12:35:59;;;;;;;5.15;2.88;;;26.00;55.30;;;;;;5094760;28;20178;-81
2021/06/07 12:38:26;;;;;;;3.58;2.45;;;26.00;55.00;;;;;;5095173;28;20209;-80
2021/06/07 12:40:54;;;;;;;4.78;2.10;;;26.00;55.00;;;;;;5095191;28;20186;-80
2021/06/07 12:43:30;;;;;;;4.15;2.92;;;25.90;54.00;;;;;;5106376;28;20188;-81
2021/06/07 12:46:00;;;;;;;3.38;2.40;;;25.80;54.50;;;;;;5083941;28;20181;-84
2021/06/07 12:48:28;;;;;;;3.25;2.15;;;25.90;53.30;;;;;;5120790;28;20646;-79
2021/06/07 12:51:08;;;;;;;5.05;2.95;;;26.00;54.60;;;;;;5116388;28;20169;-79
2021/06/07 12:53:39;;;;;;;4.13;2.38;;;26.10;53.70;;;;;;5113208;28;20266;-82